Time;durP1;ratioP1;P1;durP2;ratioP2;P2;SDS_P1;SDS_P2;PMS_P1;PMS_P2;Temp;Humidity;BMP_temperature;BMP_pressure;BME280_temperature;BME280_humidity;BME280_pressure;Samples;Min_cycle;Max_cycle;Signal;HPM_P1;HPM_P2
2021/12/13 00:02:34;;;;;;;;;3.25;2.00;;;;;22.03;38.33;102405.75;5017838;28;45393;-78
2021/12/13 00:05:36;;;;;;;;;3.75;3.00;;;;;21.94;38.79;102399.47;5020413;28;45435;-75
2021/12/13 00:08:07;;;;;;;;;2.25;2.00;;;;;22.05;38.85;102411.75;5074122;28;45626;-75
2021/12/13 00:10:41;;;;;;;;;2.00;2.00;;;;;22.01;38.61;102402.41;5072485;27;45566;-74
2021/12/13 00:13:14;;;;;;;;;2.00;2.00;;;;;22.06;38.81;102405.47;5072931;27;45376;-74
2021/12/13 00:15:59;;;;;;;;;3.25;2.75;;;;;22.06;38.35;102394.03;5072996;28;45854;-75
2021/12/13 00:18:33;;;;;;;;;2.25;2.25;;;;;22.08;38.30;102405.31;5071486;27;45416;-75
2021/12/13 00:21:12;;;;;;;;;2.00;2.00;;;;;22.06;38.45;102405.47;5059676;27;45463;-75
2021/12/13 00:23:46;;;;;;;;;1.00;1.00;;;;;22.07;38.48;102411.59;5074583;27;45431;-75
2021/12/13 00:26:21;;;;;;;;;2.25;2.25;;;;;22.05;38.26;102403.78;5073616;28;45503;-74
2021/12/13 00:28:47;;;;;;;;;3.25;3.25;;;;;21.96;38.42;102396.72;5075142;27;45399;-75
2021/12/13 00:31:30;;;;;;;;;3.00;2.25;;;;;22.05;38.53;102417.06;5074758;27;46171;-75
2021/12/13 00:34:09;;;;;;;;;3.00;2.00;;;;;22.07;38.72;102419.53;5074170;27;45394;-75
2021/12/13 00:36:47;;;;;;;;;3.25;3.25;;;;;22.06;38.45;102423.19;5075165;27;45503;-74
2021/12/13 00:39:15;;;;;;;;;3.75;3.75;;;;;22.05;38.31;102411.75;5075146;27;45523;-75
2021/12/13 00:41:42;;;;;;;;;1.50;1.50;;;;;22.05;38.14;102416.22;5074083;28;46200;-75
2021/12/13 00:44:15;;;;;;;;;2.50;2.00;;;;;22.00;38.68;102413.16;5029638;28;45481;-75
2021/12/13 00:46:44;;;;;;;;;2.00;2.00;;;;;22.03;38.21;102416.34;5010938;28;45438;-75
2021/12/13 00:49:13;;;;;;;;;2.00;2.00;;;;;21.95;38.27;102402.97;5011430;28;45506;-75
2021/12/13 00:51:49;;;;;;;;;3.00;3.00;;;;;22.01;38.11;102415.69;5010111;28;48254;-74
2021/12/13 00:54:31;;;;;;;;;2.75;2.00;;;;;21.91;37.94;102399.75;5011421;28;45551;-75
2021/12/13 00:56:59;;;;;;;;;2.00;2.00;;;;;22.03;38.56;102415.53;4995053;28;45288;-75
2021/12/13 00:59:33;;;;;;;;;3.50;2.00;;;;;21.95;38.21;102409.13;5009809;28;45365;-75
2021/12/13 01:02:07;;;;;;;;;2.75;2.75;;;;;22.03;38.39;102424.31;5012778;28;45401;-75
2021/12/13 01:05:04;;;;;;;;;3.00;2.00;;;;;22.03;38.42;102418.16;5011167;28;45466;-75
2021/12/13 01:08:04;;;;;;;;;3.00;3.00;;;;;22.03;38.08;102412.88;5009365;28;45409;-75
2021/12/13 01:10:39;;;;;;;;;3.25;3.25;;;;;22.02;38.12;102401.41;5011256;28;45512;-75
2021/12/13 01:13:18;;;;;;;;;3.25;3.00;;;;;21.71;37.99;102354.72;5009597;28;47040;-75
2021/12/13 01:15:51;;;;;;;;;2.00;2.00;;;;;22.03;38.12;102404.91;5010765;28;45491;-75
2021/12/13 01:18:32;;;;;;;;;3.00;1.75;;;;;22.02;37.87;102411.19;5011323;28;45507;-75
2021/12/13 01:23:49;;;;;;;;;3.00;3.00;;;;;22.01;38.42;102405.06;5028872;27;45497;-75
2021/12/13 01:26:35;;;;;;;;;3.00;2.25;;;;;22.02;38.09;102406.72;5033144;28;45483;-75
2021/12/13 01:29:10;;;;;;;;;4.00;3.00;;;;;22.02;38.55;102414.69;5032237;28;45379;-75
2021/12/13 01:31:47;;;;;;;;;2.00;2.00;;;;;21.72;38.18;102374.94;5030493;27;45419;-75
2021/12/13 01:34:15;;;;;;;;;2.00;2.00;;;;;21.92;38.43;102404.09;5030734;27;45367;-75
2021/12/13 01:36:53;;;;;;;;;2.00;2.00;;;;;22.02;38.63;102411.19;5029652;28;45489;-75
2021/12/13 01:39:25;;;;;;;;;2.00;2.00;;;;;22.01;38.54;102414.84;5031055;27;45306;-74
2021/12/13 01:42:07;;;;;;;;;2.00;2.00;;;;;22.00;37.94;102408.69;5013164;28;45637;-75
2021/12/13 01:44:40;;;;;;;;;2.00;2.00;;;;;21.99;38.49;102420.25;5029131;28;45736;-74
2021/12/13 01:47:09;;;;;;;;;2.00;1.00;;;;;21.96;38.43;102410.78;5032744;28;45410;-75
2021/12/13 01:49:51;;;;;;;;;1.75;1.00;;;;;21.99;38.17;102425.56;5012710;28;45405;-75
2021/12/13 01:52:30;;;;;;;;;3.00;3.00;;;;;21.98;38.43;102426.56;5029532;28;45417;-75
2021/12/13 01:55:00;;;;;;;;;2.00;2.00;;;;;21.97;38.35;102427.50;5030385;27;46104;-75
2021/12/13 01:57:40;;;;;;;;;3.00;2.00;;;;;21.98;38.26;102425.72;5030683;27;45513;-75
2021/12/13 02:00:18;;;;;;;;;4.50;3.00;;;;;21.84;38.43;102399.47;5014639;28;45481;-75
2021/12/13 02:02:50;;;;;;;;;2.00;2.00;;;;;21.97;38.55;102414.25;5030391;28;45468;-75
2021/12/13 02:05:26;;;;;;;;;4.25;2.00;;;;;21.96;38.26;102426.66;5032510;28;46139;-75
2021/12/13 02:08:00;;;;;;;;;2.50;2.00;;;;;21.95;38.57;102422.38;5030956;28;45534;-75
2021/12/13 02:10:32;;;;;;;;;2.75;2.00;;;;;21.96;38.43;102418.72;5030379;28;45540;-75
2021/12/13 02:13:02;;;;;;;;;3.00;2.00;;;;;21.96;38.32;102420.56;5029272;28;45359;-75
2021/12/13 02:18:21;;;;;;;;;2.00;2.00;;;;;21.96;38.40;102420.56;5015940;28;45504;-75
2021/12/13 02:20:57;;;;;;;;;2.00;2.00;;;;;21.96;38.51;102415.25;5030313;28;45302;-75
2021/12/13 02:23:24;;;;;;;;;3.00;3.00;;;;;21.78;37.96;102391.25;5027924;28;45428;-75
2021/12/13 02:25:55;;;;;;;;;2.25;2.25;;;;;21.96;38.43;102421.38;5029965;28;46313;-75
2021/12/13 02:28:26;;;;;;;;;2.50;2.50;;;;;21.96;38.55;102416.06;5029542;28;45478;-75
2021/12/13 02:30:54;;;;;;;;;2.75;2.75;;;;;21.96;38.26;102423.22;5028766;27;45503;-75
2021/12/13 02:33:27;;;;;;;;;2.00;2.00;;;;;21.92;38.43;102405.91;5030077;27;45315;-75
2021/12/13 02:35:56;;;;;;;;;2.50;2.00;;;;;21.95;38.37;102411.78;5029950;28;46073;-75
2021/12/13 02:38:23;;;;;;;;;2.50;2.50;;;;;21.84;38.40;102388.88;5027749;27;45400;-75
2021/12/13 02:40:51;;;;;;;;;2.50;2.50;;;;;21.93;38.31;102404.94;5029899;28;45608;-75
2021/12/13 02:43:22;;;;;;;;;2.75;2.75;;;;;21.90;37.92;102399.91;5029476;27;45337;-75
2021/12/13 02:45:52;;;;;;;;;3.25;3.00;;;;;21.96;38.19;102404.66;5012070;27;47280;-75
2021/12/13 02:48:33;;;;;;;;;3.75;2.25;;;;;21.98;38.05;102407.16;5029775;28;45408;-74
2021/12/13 02:51:22;;;;;;;;;4.00;2.75;;;;;21.92;37.95;102390.00;5014016;28;45271;-75
2021/12/13 02:53:52;;;;;;;;;3.00;3.00;;;;;21.97;38.31;102390.41;5029123;28;45521;-75
2021/12/13 02:56:21;;;;;;;;;0.00;0.00;;;;;21.97;38.10;102398.38;5031882;28;46322;-75
2021/12/13 02:58:48;;;;;;;;;2.25;2.25;;;;;21.85;38.07;102387.91;5029090;28;46908;-75
2021/12/13 03:01:20;;;;;;;;;2.25;2.25;;;;;21.96;38.04;102392.22;5021285;28;45372;-75
2021/12/13 03:03:51;;;;;;;;;1.50;1.50;;;;;21.97;38.02;102390.41;5029432;28;45542;-74
2021/12/13 03:06:21;;;;;;;;;4.00;2.00;;;;;21.96;38.03;102392.22;5029366;28;47527;-75
2021/12/13 03:08:51;;;;;;;;;2.75;2.75;;;;;21.96;38.50;102386.13;5031106;28;45415;-75
2021/12/13 03:11:27;;;;;;;;;3.75;3.25;;;;;21.95;38.25;102390.56;5033812;28;45338;-75
2021/12/13 03:14:02;;;;;;;;;1.00;1.00;;;;;21.87;38.54;102377.19;5033168;28;45372;-75
2021/12/13 03:16:40;;;;;;;;;2.25;2.25;;;;;21.95;38.36;102395.03;5032317;28;47370;-75
2021/12/13 03:19:09;;;;;;;;;3.00;2.00;;;;;21.95;38.51;102402.97;5032431;27;45524;-75
2021/12/13 03:22:07;;;;;;;;;3.00;1.75;;;;;21.95;38.35;102395.03;5032326;27;45417;-75
2021/12/13 03:24:35;;;;;;;;;3.25;3.00;;;;;21.94;38.32;102383.59;5032444;28;45580;-75
2021/12/13 03:27:25;;;;;;;;;2.75;2.75;;;;;21.95;38.34;102393.22;5032090;27;47528;-75
2021/12/13 03:29:57;;;;;;;;;2.25;2.25;;;;;21.94;38.38;102386.22;5032359;28;45279;-75
2021/12/13 03:32:22;;;;;;;;;6.25;3.00;;;;;21.91;38.25;102393.66;5030408;28;45383;-74
2021/12/13 03:35:03;;;;;;;;;2.00;2.00;;;;;21.66;37.81;102345.53;5010028;27;45751;-74
2021/12/13 03:37:29;;;;;;;;;3.00;2.00;;;;;21.93;38.17;102397.84;5027728;27;46259;-75
2021/12/13 03:39:59;;;;;;;;;5.50;2.25;;;;;21.93;37.88;102400.47;5031992;28;45412;-75
2021/12/13 03:42:30;;;;;;;;;2.00;2.00;;;;;21.88;37.80;102389.47;5032093;27;45552;-75
2021/12/13 03:45:00;;;;;;;;;5.00;3.00;;;;;21.93;37.84;102400.47;5016822;28;45390;-74
2021/12/13 03:47:36;;;;;;;;;3.00;3.00;;;;;21.92;38.27;102395.31;5030303;28;45322;-75
2021/12/13 03:50:09;;;;;;;;;2.75;2.00;;;;;21.91;38.31;102386.50;5031292;28;45427;-74
2021/12/13 03:52:41;;;;;;;;;2.00;2.00;;;;;21.92;37.75;102396.16;5032128;27;45498;-74
2021/12/13 03:55:08;;;;;;;;;3.00;2.25;;;;;21.88;38.49;102383.31;5031656;27;45636;-75
2021/12/13 03:57:38;;;;;;;;;3.00;2.00;;;;;21.88;38.23;102383.31;5032071;27;45788;-75
2021/12/13 04:00:05;;;;;;;;;4.25;2.50;;;;;21.92;38.27;102393.50;5032147;28;45398;-74
2021/12/13 04:02:34;;;;;;;;;3.75;2.00;;;;;21.93;37.80;102387.22;5033401;27;45365;-75
2021/12/13 04:05:08;;;;;;;;;3.00;3.00;;;;;21.93;37.96;102384.59;5033982;28;45379;-74
2021/12/13 04:07:47;;;;;;;;;2.00;2.00;;;;;21.90;38.02;102374.25;5031693;27;46621;-74
2021/12/13 04:10:19;;;;;;;;;2.00;2.00;;;;;21.92;38.26;102382.91;5031434;28;45398;-73
2021/12/13 04:12:49;;;;;;;;;2.25;2.00;;;;;21.94;37.87;102382.75;5030797;28;45639;-75
2021/12/13 04:15:22;;;;;;;;;3.50;3.00;;;;;21.94;38.22;102388.03;5032004;28;45335;-75
2021/12/13 04:20:46;;;;;;;;;2.25;2.25;;;;;21.94;37.72;102385.38;5092590;27;45405;-75
2021/12/13 04:23:17;;;;;;;;;5.25;2.25;;;;;21.93;37.91;102381.94;5078232;27;45395;-75
2021/12/13 04:25:45;;;;;;;;;5.00;3.50;;;;;21.85;38.21;102376.47;5084058;27;45505;-74
2021/12/13 04:28:41;;;;;;;;;3.00;3.00;;;;;21.94;38.15;102391.53;5088966;27;45430;-74
2021/12/13 04:31:15;;;;;;;;;1.25;1.25;;;;;21.93;37.94;102392.53;5086245;27;45417;-75
2021/12/13 04:33:45;;;;;;;;;3.25;2.00;;;;;21.93;38.13;102386.38;5083176;27;46240;-75
2021/12/13 04:36:16;;;;;;;;;2.00;2.00;;;;;21.94;37.82;102388.03;5080640;27;45416;-75
2021/12/13 04:38:51;;;;;;;;;2.00;2.00;;;;;21.94;38.17;102393.34;5077909;27;47375;-75
2021/12/13 04:41:24;;;;;;;;;3.00;3.00;;;;;21.63;38.04;102344.84;5079895;27;45357;-74
2021/12/13 04:43:56;;;;;;;;;2.00;2.00;;;;;21.93;38.35;102391.69;5083044;27;45573;-75
2021/12/13 04:46:27;;;;;;;;;2.00;2.00;;;;;21.93;38.26;102386.38;5082858;27;45487;-75
2021/12/13 04:48:57;;;;;;;;;2.00;2.00;;;;;21.93;37.99;102378.44;5082692;27;47147;-75
2021/12/13 04:51:28;;;;;;;;;3.00;3.00;;;;;21.91;38.16;102380.41;5081962;27;45392;-75
2021/12/13 04:53:58;;;;;;;;;2.00;2.00;;;;;21.93;37.90;102384.59;5077795;27;45404;-75
2021/12/13 04:56:27;;;;;;;;;2.00;2.00;;;;;21.91;38.08;102386.50;5049379;27;45296;-73
2021/12/13 04:58:55;;;;;;;;;2.00;2.00;;;;;21.92;37.77;102382.06;5010189;28;46200;-75
2021/12/13 05:01:23;;;;;;;;;3.00;2.75;;;;;21.76;38.09;102359.59;5011246;28;45486;-74
2021/12/13 05:03:57;;;;;;;;;2.50;2.50;;;;;21.92;38.20;102385.53;5011274;28;45405;-75
2021/12/13 05:06:29;;;;;;;;;3.00;3.00;;;;;21.91;38.25;102381.22;5010123;28;45445;-75
2021/12/13 05:08:58;;;;;;;;;2.00;2.00;;;;;21.81;38.22;102373.25;4995213;28;46652;-75
2021/12/13 05:11:31;;;;;;;;;4.00;2.00;;;;;21.84;38.12;102375.63;5009146;28;45324;-75
2021/12/13 05:13:58;;;;;;;;;2.50;2.50;;;;;21.85;38.12;102373.81;5010843;28;45241;-74
2021/12/13 05:16:40;;;;;;;;;2.75;2.75;;;;;21.89;38.29;102391.13;5011218;28;45446;-75
2021/12/13 05:19:07;;;;;;;;;2.00;2.00;;;;;21.91;37.84;102383.06;5011015;28;46446;-75
2021/12/13 05:21:38;;;;;;;;;2.25;2.25;;;;;21.81;37.75;102373.25;5011187;27;45447;-74
2021/12/13 05:24:11;;;;;;;;;2.00;1.25;;;;;21.90;37.91;102387.50;5031134;28;45576;-75
2021/12/13 05:26:49;;;;;;;;;3.00;2.00;;;;;21.90;37.86;102395.47;5031946;28;45454;-75
2021/12/13 05:29:25;;;;;;;;;2.75;2.75;;;;;21.91;38.15;102396.31;5032981;28;46453;-75
2021/12/13 05:31:53;;;;;;;;;4.00;2.50;;;;;21.90;38.35;102391.97;5029233;27;45282;-74
2021/12/13 05:34:19;;;;;;;;;3.25;3.00;;;;;21.91;38.19;102388.34;5030864;28;45414;-75
2021/12/13 05:36:55;;;;;;;;;2.75;2.75;;;;;21.90;37.99;102382.22;5030652;28;45328;-75
2021/12/13 05:39:22;;;;;;;;;3.00;3.00;;;;;21.85;38.15;102384.41;5030890;28;45470;-74
2021/12/13 05:41:55;;;;;;;;;2.00;2.00;;;;;21.84;37.77;102367.69;5030851;28;45373;-74
2021/12/13 05:44:34;;;;;;;;;1.75;1.75;;;;;21.92;38.16;102382.06;5032811;28;45394;-75
2021/12/13 05:47:04;;;;;;;;;3.25;2.00;;;;;21.92;37.98;102382.91;5031742;28;45491;-75
2021/12/13 05:49:40;;;;;;;;;2.00;2.00;;;;;21.93;38.13;102383.75;5030401;27;46346;-75
2021/12/13 05:52:08;;;;;;;;;2.00;2.00;;;;;21.92;37.80;102388.19;5012220;28;46205;-75
2021/12/13 05:54:39;;;;;;;;;3.00;3.00;;;;;21.93;37.77;102389.88;5030731;28;45341;-75
2021/12/13 05:57:17;;;;;;;;;3.75;2.00;;;;;21.89;38.00;102383.16;5030662;28;45563;-75
2021/12/13 05:59:51;;;;;;;;;2.50;2.25;;;;;21.95;38.19;102400.31;5030335;28;46096;-75
2021/12/13 06:02:49;;;;;;;;;2.00;2.00;;;;;21.94;38.36;102402.13;5032473;28;45359;-75
2021/12/13 06:05:21;;;;;;;;;2.50;2.00;;;;;21.94;37.76;102401.28;5031361;28;45456;-74
2021/12/13 06:07:57;;;;;;;;;2.00;2.00;;;;;21.82;38.02;102374.09;5030391;27;45463;-75
2021/12/13 06:10:27;;;;;;;;;2.75;2.75;;;;;21.92;37.69;102396.16;5028866;28;46304;-75
2021/12/13 06:12:58;;;;;;;;;3.00;3.00;;;;;21.82;38.32;102372.28;5030015;27;45283;-74
2021/12/13 06:15:37;;;;;;;;;3.00;3.00;;;;;21.93;37.98;102395.19;5030331;28;45546;-74
2021/12/13 06:18:05;;;;;;;;;1.75;1.75;;;;;21.94;37.89;102398.63;5014203;28;45392;-74
2021/12/13 06:20:59;;;;;;;;;1.50;1.50;;;;;21.92;38.09;102395.31;5030990;28;47475;-74
2021/12/13 06:23:30;;;;;;;;;2.00;2.00;;;;;21.93;37.92;102400.47;5028119;27;45553;-75
2021/12/13 06:26:03;;;;;;;;;1.50;1.50;;;;;21.92;37.95;102388.19;5029796;28;45341;-74
2021/12/13 06:28:41;;;;;;;;;2.00;2.00;;;;;21.93;37.72;102392.53;5029946;28;45569;-75
2021/12/13 06:31:11;;;;;;;;;2.00;2.00;;;;;21.93;37.74;102392.53;5029844;28;45251;-75
2021/12/13 06:34:03;;;;;;;;;2.50;2.00;;;;;21.61;37.70;102340.66;5029920;28;45565;-75
2021/12/13 06:36:38;;;;;;;;;2.00;2.00;;;;;21.84;38.19;102391.53;5012160;27;45481;-74
2021/12/13 06:39:19;;;;;;;;;3.00;2.00;;;;;21.65;38.11;102355.28;5015373;28;45460;-74
2021/12/13 06:41:59;;;;;;;;;2.50;2.00;;;;;21.91;38.07;102397.09;5011741;27;46261;-85
2021/12/13 06:44:44;;;;;;;;;2.00;2.00;;;;;21.89;38.12;102399.06;5030454;28;45414;-77
2021/12/13 06:47:22;;;;;;;;;1.50;1.50;;;;;21.94;38.08;102401.28;5012572;28;45552;-79
2021/12/13 06:49:53;;;;;;;;;2.00;2.00;;;;;21.94;37.95;102403.94;5032207;28;45291;-77
2021/12/13 06:52:23;;;;;;;;;3.00;3.00;;;;;21.82;38.25;102390.84;5032749;28;45750;-74
2021/12/13 06:54:58;;;;;;;;;2.00;2.00;;;;;21.93;37.92;102410.25;5030443;27;45613;-74
2021/12/13 06:57:38;;;;;;;;;2.25;2.00;;;;;21.93;37.98;102411.06;5026093;27;45549;-75
2021/12/13 07:00:21;;;;;;;;;2.00;2.00;;;;;21.94;38.26;102409.25;5032581;28;45494;-74
2021/12/13 07:02:59;;;;;;;;;5.75;2.50;;;;;21.95;38.11;102414.41;5031726;28;45476;-75
2021/12/13 07:05:27;;;;;;;;;2.75;2.75;;;;;21.85;38.01;102401.16;5044741;27;45397;-76
2021/12/13 07:08:07;;;;;;;;;3.00;3.00;;;;;21.96;37.89;102413.41;5033320;27;45333;-75
2021/12/13 07:10:46;;;;;;;;;2.00;2.00;;;;;21.98;38.42;102420.41;5057980;27;45449;-76
2021/12/13 07:13:27;;;;;;;;;3.00;3.00;;;;;21.99;38.41;102419.44;5084384;27;46361;-75
2021/12/13 07:16:22;;;;;;;;;2.75;1.00;;;;;21.93;37.85;102399.63;5072634;27;45498;-76
2021/12/13 07:18:57;;;;;;;;;2.00;2.00;;;;;21.71;38.25;102373.25;5042303;27;45503;-79
2021/12/13 07:21:35;;;;;;;;;3.25;3.25;;;;;22.02;38.54;102419.97;5032031;28;45428;-79
2021/12/13 07:24:05;;;;;;;;;1.25;1.25;;;;;22.02;38.24;102419.13;5015834;28;45327;-72
2021/12/13 07:26:53;;;;;;;;;2.25;2.00;;;;;22.03;38.17;102426.13;5034155;28;45236;-72
2021/12/13 07:29:38;;;;;;;;;2.00;2.00;;;;;22.04;38.39;102433.09;5033977;28;45377;-75
2021/12/13 07:32:14;;;;;;;;;2.00;2.00;;;;;22.03;38.32;102437.56;5034228;27;45546;-74
2021/12/13 07:35:06;;;;;;;;;2.25;2.25;;;;;22.04;38.02;102433.91;5023260;28;47398;-73
2021/12/13 07:38:00;;;;;;;;;3.75;2.00;;;;;22.05;38.35;102437.41;5030257;28;45488;-73
2021/12/13 07:40:34;;;;;;;;;3.75;2.75;;;;;22.05;38.45;102432.09;5089959;27;45375;-72
2021/12/13 07:43:11;;;;;;;;;3.50;2.00;;;;;22.05;38.29;102424.16;5090825;27;45556;-72
2021/12/13 07:46:06;;;;;;;;;2.00;2.00;;;;;22.04;38.37;102427.81;5094258;27;47139;-72
2021/12/13 07:48:33;;;;;;;;;3.00;3.00;;;;;22.03;38.69;102426.97;5083484;27;45465;-72
2021/12/13 07:51:19;;;;;;;;;3.75;2.00;;;;;22.03;38.36;102429.63;5079561;27;45466;-71
2021/12/13 07:53:50;;;;;;;;;2.00;2.00;;;;;22.02;38.55;102429.75;5079086;27;45387;-72
2021/12/13 07:56:33;;;;;;;;;2.00;1.00;;;;;22.02;38.52;102435.03;5078520;27;46142;-72
2021/12/13 07:59:10;;;;;;;;;2.75;2.75;;;;;22.02;38.46;102437.69;5082898;27;45442;-71
2021/12/13 08:01:48;;;;;;;;;1.00;1.00;;;;;22.01;38.33;102443.97;5083349;27;45503;-71
2021/12/13 08:04:22;;;;;;;;;2.25;2.25;;;;;22.01;38.33;102441.34;5083445;27;45510;-73
2021/12/13 08:06:54;;;;;;;;;3.25;2.00;;;;;22.00;38.09;102444.94;5083523;27;47224;-73
2021/12/13 08:09:24;;;;;;;;;2.00;2.00;;;;;21.99;38.65;102449.41;5082106;27;45570;-73
2021/12/13 08:11:55;;;;;;;;;1.50;1.50;;;;;21.99;38.26;102448.59;5078774;27;45233;-72
2021/12/13 08:14:28;;;;;;;;;2.00;2.00;;;;;21.99;38.26;102441.47;5080105;27;45593;-72
2021/12/13 08:16:54;;;;;;;;;4.00;2.25;;;;;21.91;38.68;102430.75;5065945;27;45450;-72
2021/12/13 08:19:26;;;;;;;;;2.50;2.50;;;;;21.98;38.56;102445.09;5027565;28;45424;-72
2021/12/13 08:21:57;;;;;;;;;3.00;2.00;;;;;21.94;38.12;102441.88;5030388;27;45464;-73
2021/12/13 08:24:29;;;;;;;;;2.50;2.50;;;;;21.98;38.07;102449.56;5031688;28;45488;-72
2021/12/13 08:27:09;;;;;;;;;2.75;2.25;;;;;21.87;38.46;102429.31;5031626;28;47308;-72
2021/12/13 08:29:37;;;;;;;;;2.75;2.75;;;;;21.96;38.12;102452.38;5033569;28;45394;-72
2021/12/13 08:32:13;;;;;;;;;3.00;3.00;;;;;21.97;38.64;102451.38;5032888;28;45397;-72
2021/12/13 08:34:45;;;;;;;;;4.00;4.00;;;;;21.95;38.44;102451.53;5031583;27;45488;-72
2021/12/13 08:37:33;;;;;;;;;3.00;3.00;;;;;21.85;38.45;102435.59;5031330;28;46075;-72
2021/12/13 08:40:27;;;;;;;;;3.00;3.00;;;;;21.95;38.48;102454.16;5031139;28;45342;-71
2021/12/13 08:42:55;;;;;;;;;2.00;2.00;;;;;21.95;38.48;102456.81;5031437;28;45350;-72
2021/12/13 08:45:35;;;;;;;;;1.75;1.75;;;;;21.95;38.04;102467.41;5030151;28;45457;-72
2021/12/13 08:48:12;;;;;;;;;2.50;2.50;;;;;21.96;38.47;102474.38;5016134;28;46268;-71
2021/12/13 08:50:49;;;;;;;;;3.00;3.00;;;;;21.95;38.52;102472.72;5032108;28;48077;-71
2021/12/13 08:53:26;;;;;;;;;4.00;3.00;;;;;21.96;38.51;102476.22;5033759;28;45362;-72
2021/12/13 08:55:59;;;;;;;;;2.50;2.50;;;;;21.94;38.07;102471.03;5030397;27;45286;-73
2021/12/13 08:58:25;;;;;;;;;2.00;2.00;;;;;21.94;38.08;102471.03;5031060;28;47273;-72
2021/12/13 09:01:13;;;;;;;;;2.00;2.00;;;;;21.96;37.98;102474.38;5029343;28;45359;-72
2021/12/13 09:03:43;;;;;;;;;3.00;3.00;;;;;21.96;38.39;102470.91;5031257;27;45321;-72
2021/12/13 09:06:22;;;;;;;;;4.00;3.00;;;;;21.98;38.18;102478.72;5030581;28;45438;-72
2021/12/13 09:09:09;;;;;;;;;3.00;3.00;;;;;21.97;38.31;102475.22;5031190;28;46370;-72
2021/12/13 09:12:00;;;;;;;;;3.25;2.50;;;;;21.95;38.35;102478.03;5029428;28;45284;-72
2021/12/13 09:14:39;;;;;;;;;2.00;2.00;;;;;21.91;38.01;102471.31;5029112;28;45487;-72
2021/12/13 09:17:21;;;;;;;;;2.00;2.00;;;;;21.95;38.49;102477.19;5033150;28;45640;-72
2021/12/13 09:19:59;;;;;;;;;3.00;1.75;;;;;21.52;38.31;102400.56;5030600;28;46253;-72
2021/12/13 09:22:48;;;;;;;;;2.00;2.00;;;;;21.84;38.00;102457.75;5030751;28;45502;-72
2021/12/13 09:25:47;;;;;;;;;2.00;2.00;;;;;21.82;38.17;102446.47;5029794;28;45444;-72
2021/12/13 09:28:23;;;;;;;;;2.50;2.50;;;;;21.94;38.57;102484.28;5030438;28;45338;-72
2021/12/13 09:30:59;;;;;;;;;4.50;3.00;;;;;21.88;38.06;102462.81;5030560;28;46088;-72
2021/12/13 09:33:28;;;;;;;;;3.50;2.50;;;;;21.94;38.05;102478.97;5030871;28;46062;-72
2021/12/13 09:35:59;;;;;;;;;3.75;3.75;;;;;21.94;38.51;102480.78;5030856;28;45455;-72
2021/12/13 09:38:49;;;;;;;;;1.50;1.50;;;;;21.94;38.36;102489.59;5029039;27;45241;-72
2021/12/13 09:41:32;;;;;;;;;2.00;2.00;;;;;21.93;38.48;102492.38;5031542;28;45433;-72
2021/12/13 09:44:00;;;;;;;;;3.00;3.00;;;;;21.91;38.28;102492.50;5029747;28;45616;-72
2021/12/13 09:46:31;;;;;;;;;2.50;2.50;;;;;21.93;38.15;102498.53;5030684;28;45722;-72
2021/12/13 09:48:59;;;;;;;;;1.25;1.25;;;;;21.93;38.30;102501.19;5030565;28;45617;-72
2021/12/13 09:51:36;;;;;;;;;2.50;1.50;;;;;21.90;38.23;102501.44;5030568;27;45385;-72
2021/12/13 09:54:08;;;;;;;;;1.75;1.75;;;;;21.92;38.39;102506.59;5015627;28;45486;-72
2021/12/13 09:56:38;;;;;;;;;1.25;1.25;;;;;21.88;37.98;102506.06;5032014;28;45328;-72
2021/12/13 09:59:15;;;;;;;;;3.00;3.00;;;;;21.92;37.98;102514.56;5032124;28;45533;-72
2021/12/13 10:01:41;;;;;;;;;2.00;2.00;;;;;21.91;38.37;102513.72;5030289;27;47303;-72
2021/12/13 10:04:34;;;;;;;;;2.00;2.00;;;;;21.92;38.08;102519.84;5029103;28;45595;-72
2021/12/13 10:07:06;;;;;;;;;2.00;2.00;;;;;21.91;38.44;102518.19;5030501;28;45497;-72
2021/12/13 10:09:46;;;;;;;;;3.00;3.00;;;;;21.92;38.12;102519.84;5030313;28;45521;-72
2021/12/13 10:12:28;;;;;;;;;1.00;1.00;;;;;21.91;38.47;102513.72;5030163;27;45517;-72
2021/12/13 10:15:03;;;;;;;;;2.50;2.50;;;;;21.91;38.20;102518.19;5030180;28;45422;-72
2021/12/13 10:17:34;;;;;;;;;2.75;1.50;;;;;21.92;38.35;102519.84;5028349;28;45427;-72
2021/12/13 10:20:07;;;;;;;;;2.00;2.00;;;;;21.87;37.95;102509.66;5032898;27;45455;-72
2021/12/13 10:22:33;;;;;;;;;1.00;1.00;;;;;21.87;38.32;102514.09;5032636;27;46566;-72
2021/12/13 10:25:06;;;;;;;;;2.25;2.25;;;;;21.93;38.52;102518.88;5033127;28;45455;-72
2021/12/13 10:27:32;;;;;;;;;2.75;2.75;;;;;21.86;38.31;102500.00;5032871;27;45362;-72
2021/12/13 10:30:00;;;;;;;;;2.25;1.75;;;;;21.92;38.44;102499.50;5033312;28;45429;-72
2021/12/13 10:32:30;;;;;;;;;2.00;2.00;;;;;21.93;38.53;102503.84;5013365;28;47320;-72
2021/12/13 10:35:01;;;;;;;;;2.00;2.00;;;;;21.93;37.92;102500.34;5031093;28;45475;-72
2021/12/13 10:37:31;;;;;;;;;1.75;1.75;;;;;21.93;37.99;102498.53;5032962;28;45528;-72
2021/12/13 10:40:00;;;;;;;;;2.25;2.00;;;;;21.87;37.81;102487.59;5032959;27;45439;-72
2021/12/13 10:42:34;;;;;;;;;2.25;2.00;;;;;21.85;38.51;102485.94;5031141;28;47123;-72
2021/12/13 10:45:03;;;;;;;;;2.75;2.00;;;;;21.93;38.41;102493.22;5016160;28;45468;-72
2021/12/13 10:47:35;;;;;;;;;3.00;3.00;;;;;21.94;38.38;102494.88;5034729;28;45310;-72
2021/12/13 10:50:03;;;;;;;;;3.00;3.00;;;;;21.94;38.34;102499.34;5034204;27;45304;-71
2021/12/13 10:52:34;;;;;;;;;4.00;3.00;;;;;21.94;37.84;102491.38;5032649;27;46223;-72
2021/12/13 10:55:08;;;;;;;;;3.50;2.00;;;;;21.94;38.26;102491.38;5032695;28;45570;-72
2021/12/13 10:57:37;;;;;;;;;1.75;1.75;;;;;21.91;38.42;102481.09;5031407;27;45522;-72
2021/12/13 11:00:13;;;;;;;;;2.50;2.50;;;;;21.93;38.19;102489.75;5032973;27;45520;-71
2021/12/13 11:02:39;;;;;;;;;2.25;2.25;;;;;21.92;38.27;102483.59;5033329;27;45430;-72
2021/12/13 11:05:13;;;;;;;;;1.75;1.75;;;;;21.92;38.22;102491.53;5034117;28;45489;-72
2021/12/13 11:07:40;;;;;;;;;2.00;2.00;;;;;21.88;38.08;102487.50;5032651;27;45418;-72
2021/12/13 11:10:09;;;;;;;;;2.25;1.75;;;;;21.93;37.89;102487.09;5011482;28;45536;-72
2021/12/13 11:12:39;;;;;;;;;2.25;2.00;;;;;21.92;38.35;102480.09;5020383;28;46493;-72
2021/12/13 11:15:09;;;;;;;;;3.50;2.25;;;;;21.92;38.43;102480.94;5032257;28;45520;-72
2021/12/13 11:17:35;;;;;;;;;3.75;2.00;;;;;21.92;37.76;102474.81;5033716;28;45351;-72
2021/12/13 11:20:10;;;;;;;;;2.25;2.00;;;;;21.92;38.37;102469.50;5033689;28;45302;-72
2021/12/13 11:22:35;;;;;;;;;3.50;2.00;;;;;21.92;38.31;102477.44;5009893;27;46810;-72
2021/12/13 11:25:11;;;;;;;;;2.00;2.00;;;;;21.90;38.39;102471.47;5012141;28;45450;-72
2021/12/13 11:27:38;;;;;;;;;3.25;2.00;;;;;21.88;38.23;102466.31;5012673;28;45456;-72
2021/12/13 11:30:13;;;;;;;;;3.00;3.00;;;;;21.80;38.18;102455.53;5012198;28;45373;-72
2021/12/13 11:32:57;;;;;;;;;3.25;3.00;;;;;21.90;38.08;102459.06;5009858;28;46058;-72
2021/12/13 11:36:07;;;;;;;;;3.75;3.00;;;;;21.90;38.17;102458.22;5014519;28;45280;-72
2021/12/13 11:38:35;;;;;;;;;4.25;2.75;;;;;21.90;38.17;102463.50;5035658;28;45389;-72
2021/12/13 11:41:38;;;;;;;;;3.75;2.00;;;;;21.90;38.02;102463.50;5054343;28;45490;-72
2021/12/13 11:44:24;;;;;;;;;3.00;3.00;;;;;21.91;38.43;102462.53;5055082;28;45738;-72
2021/12/13 11:47:13;;;;;;;;;3.50;2.75;;;;;21.86;38.31;102454.97;5054702;28;45503;-72
2021/12/13 11:50:15;;;;;;;;;2.50;2.50;;;;;21.91;38.17;102465.19;5054170;28;45486;-72
2021/12/13 11:53:02;;;;;;;;;2.25;2.25;;;;;21.91;38.03;102462.53;5054430;28;45398;-72
2021/12/13 11:55:56;;;;;;;;;2.00;2.00;;;;;21.91;38.24;102467.84;5053824;28;47519;-72
2021/12/13 11:58:51;;;;;;;;;3.75;2.00;;;;;21.91;38.31;102458.06;5054411;28;45666;-72
2021/12/13 12:01:54;;;;;;;;;3.50;3.25;;;;;21.92;38.29;102459.75;5054464;28;45441;-72
2021/12/13 12:04:56;;;;;;;;;2.25;2.25;;;;;21.92;37.81;102465.03;5054117;28;45406;-72
2021/12/13 12:07:43;;;;;;;;;3.00;3.00;;;;;21.91;38.47;102463.34;5053930;28;46386;-72
2021/12/13 12:10:45;;;;;;;;;3.25;3.25;;;;;21.89;38.68;102445.94;5054297;28;45611;-71
2021/12/13 12:13:36;;;;;;;;;2.00;2.00;;;;;21.94;38.04;102454.28;5054344;28;45380;-72